Terminal Aerodrome Forecast
Issued by NWS Charleston, WV

Home | Current Version | Previous Version | Text Only | Print | Product List | Glossary On
Versions: 1 2 3 4 5 6 7 8 9 10 11 12 13 14 15 16 17 18 19 20 21 22 23 24
791
FTUS41 KRLX 192333
TAFCRW
TAF
KCRW 192333Z 2000/2024 00000KT P6SM SKC
     FM200900 00000KT 4SM BR SKC
     FM201000 00000KT 2SM BR SCT001
     FM201300 00000KT 5SM BR SKC
     FM201400 VRB03KT P6SM SKC
     FM201600 VRB04KT P6SM SCT050
     FM202300 00000KT P6SM FEW250=

USA.gov is the U.S. government's official web portal to all federal, state and local government web resources and services.